sensor_id;sensor_type;location;lat;lon;timestamp;P1;durP1;ratioP1;P2;durP2;ratioP2
14704;SDS011;7442;50.840;3.396;2023-01-29T00:02:40;5.20;;;4.70;;
14704;SDS011;7442;50.840;3.396;2023-01-29T00:05:26;4.78;;;4.22;;
14704;SDS011;7442;50.840;3.396;2023-01-29T00:08:13;5.28;;;4.42;;
14704;SDS011;7442;50.840;3.396;2023-01-29T00:11:00;5.90;;;4.67;;
14704;SDS011;7442;50.840;3.396;2023-01-29T00:13:50;5.22;;;4.72;;
14704;SDS011;7442;50.840;3.396;2023-01-29T00:16:37;4.90;;;4.40;;
14704;SDS011;7442;50.840;3.396;2023-01-29T00:19:24;5.00;;;4.47;;
14704;SDS011;7442;50.840;3.396;2023-01-29T00:22:10;4.80;;;4.40;;
14704;SDS011;7442;50.840;3.396;2023-01-29T00:24:56;6.03;;;5.05;;
14704;SDS011;7442;50.840;3.396;2023-01-29T00:27:43;5.58;;;5.03;;
14704;SDS011;7442;50.840;3.396;2023-01-29T00:30:32;5.62;;;4.45;;
14704;SDS011;7442;50.840;3.396;2023-01-29T00:33:18;5.62;;;4.80;;
14704;SDS011;7442;50.840;3.396;2023-01-29T00:36:05;4.90;;;4.47;;
14704;SDS011;7442;50.840;3.396;2023-01-29T00:38:56;5.72;;;4.72;;
14704;SDS011;7442;50.840;3.396;2023-01-29T00:41:45;6.03;;;5.03;;
14704;SDS011;7442;50.840;3.396;2023-01-29T00:44:50;5.12;;;4.62;;
14704;SDS011;7442;50.840;3.396;2023-01-29T00:47:42;5.47;;;4.97;;
14704;SDS011;7442;50.840;3.396;2023-01-29T00:50:28;5.55;;;4.62;;
14704;SDS011;7442;50.840;3.396;2023-01-29T00:53:15;5.55;;;5.00;;
14704;SDS011;7442;50.840;3.396;2023-01-29T00:56:01;5.22;;;4.72;;
14704;SDS011;7442;50.840;3.396;2023-01-29T00:58:48;5.92;;;4.97;;
14704;SDS011;7442;50.840;3.396;2023-01-29T01:01:34;5.62;;;4.83;;
14704;SDS011;7442;50.840;3.396;2023-01-29T01:04:38;5.75;;;4.62;;
14704;SDS011;7442;50.840;3.396;2023-01-29T01:07:25;6.30;;;5.10;;
14704;SDS011;7442;50.840;3.396;2023-01-29T01:10:13;5.35;;;4.83;;
14704;SDS011;7442;50.840;3.396;2023-01-29T01:13:14;5.60;;;5.10;;
14704;SDS011;7442;50.840;3.396;2023-01-29T01:16:00;6.60;;;4.75;;
14704;SDS011;7442;50.840;3.396;2023-01-29T01:18:47;6.40;;;4.97;;
14704;SDS011;7442;50.840;3.396;2023-01-29T01:21:33;5.12;;;4.62;;
14704;SDS011;7442;50.840;3.396;2023-01-29T01:24:19;4.78;;;4.37;;
14704;SDS011;7442;50.840;3.396;2023-01-29T01:27:07;5.55;;;4.92;;
14704;SDS011;7442;50.840;3.396;2023-01-29T01:29:53;5.30;;;4.58;;
14704;SDS011;7442;50.840;3.396;2023-01-29T01:32:40;5.42;;;4.92;;
14704;SDS011;7442;50.840;3.396;2023-01-29T01:35:27;5.60;;;5.05;;
14704;SDS011;7442;50.840;3.396;2023-01-29T01:38:15;5.30;;;4.80;;
14704;SDS011;7442;50.840;3.396;2023-01-29T01:41:06;6.12;;;4.75;;
14704;SDS011;7442;50.840;3.396;2023-01-29T01:43:57;5.50;;;5.00;;
14704;SDS011;7442;50.840;3.396;2023-01-29T01:46:45;4.80;;;4.40;;
14704;SDS011;7442;50.840;3.396;2023-01-29T01:49:32;6.37;;;5.22;;
14704;SDS011;7442;50.840;3.396;2023-01-29T01:52:18;5.15;;;4.70;;
14704;SDS011;7442;50.840;3.396;2023-01-29T01:55:06;5.10;;;4.42;;
14704;SDS011;7442;50.840;3.396;2023-01-29T01:57:56;6.00;;;5.17;;
14704;SDS011;7442;50.840;3.396;2023-01-29T02:00:44;5.20;;;4.70;;
14704;SDS011;7442;50.840;3.396;2023-01-29T02:03:30;6.03;;;4.78;;
14704;SDS011;7442;50.840;3.396;2023-01-29T02:06:38;5.08;;;4.58;;
14704;SDS011;7442;50.840;3.396;2023-01-29T02:09:45;5.10;;;4.60;;
14704;SDS011;7442;50.840;3.396;2023-01-29T02:12:32;5.05;;;4.55;;
14704;SDS011;7442;50.840;3.396;2023-01-29T02:15:20;5.90;;;4.70;;
14704;SDS011;7442;50.840;3.396;2023-01-29T02:18:07;5.72;;;4.85;;
14704;SDS011;7442;50.840;3.396;2023-01-29T02:21:19;5.20;;;4.70;;
14704;SDS011;7442;50.840;3.396;2023-01-29T02:30:25;4.92;;;4.37;;
14704;SDS011;7442;50.840;3.396;2023-01-29T02:36:09;6.33;;;4.58;;
14704;SDS011;7442;50.840;3.396;2023-01-29T02:44:59;5.93;;;5.10;;
14704;SDS011;7442;50.840;3.396;2023-01-29T02:47:57;5.17;;;4.72;;
14704;SDS011;7442;50.840;3.396;2023-01-29T02:50:47;6.53;;;4.43;;
14704;SDS011;7442;50.840;3.396;2023-01-29T02:53:47;5.10;;;4.55;;
14704;SDS011;7442;50.840;3.396;2023-01-29T02:56:47;4.80;;;4.40;;
14704;SDS011;7442;50.840;3.396;2023-01-29T02:59:43;5.00;;;4.50;;
14704;SDS011;7442;50.840;3.396;2023-01-29T03:02:37;5.17;;;4.67;;
14704;SDS011;7442;50.840;3.396;2023-01-29T03:05:32;4.92;;;4.42;;
14704;SDS011;7442;50.840;3.396;2023-01-29T03:08:30;5.20;;;4.70;;
14704;SDS011;7442;50.840;3.396;2023-01-29T03:11:13;6.25;;;5.15;;
14704;SDS011;7442;50.840;3.396;2023-01-29T03:14:03;5.17;;;4.62;;
14704;SDS011;7442;50.840;3.396;2023-01-29T03:16:55;5.65;;;4.80;;
14704;SDS011;7442;50.840;3.396;2023-01-29T03:19:42;6.20;;;4.58;;
14704;SDS011;7442;50.840;3.396;2023-01-29T03:22:31;5.20;;;4.58;;
14704;SDS011;7442;50.840;3.396;2023-01-29T03:25:19;5.80;;;5.08;;
14704;SDS011;7442;50.840;3.396;2023-01-29T03:28:25;6.35;;;4.45;;
14704;SDS011;7442;50.840;3.396;2023-01-29T03:31:32;6.15;;;4.83;;
14704;SDS011;7442;50.840;3.396;2023-01-29T03:34:43;5.80;;;5.03;;
14704;SDS011;7442;50.840;3.396;2023-01-29T03:37:44;7.72;;;4.87;;
14704;SDS011;7442;50.840;3.396;2023-01-29T03:40:34;5.30;;;4.80;;
14704;SDS011;7442;50.840;3.396;2023-01-29T03:43:39;5.12;;;4.62;;
14704;SDS011;7442;50.840;3.396;2023-01-29T03:46:37;4.85;;;4.40;;
14704;SDS011;7442;50.840;3.396;2023-01-29T03:52:33;5.17;;;4.67;;
14704;SDS011;7442;50.840;3.396;2023-01-29T03:55:37;6.40;;;4.83;;
14704;SDS011;7442;50.840;3.396;2023-01-29T03:58:38;5.35;;;4.85;;
14704;SDS011;7442;50.840;3.396;2023-01-29T04:01:38;5.58;;;5.03;;
14704;SDS011;7442;50.840;3.396;2023-01-29T04:04:36;5.40;;;4.90;;
14704;SDS011;7442;50.840;3.396;2023-01-29T04:07:26;5.35;;;4.70;;
14704;SDS011;7442;50.840;3.396;2023-01-29T04:10:18;5.05;;;4.62;;
14704;SDS011;7442;50.840;3.396;2023-01-29T04:13:07;5.42;;;4.90;;
14704;SDS011;7442;50.840;3.396;2023-01-29T04:15:57;5.62;;;4.90;;
14704;SDS011;7442;50.840;3.396;2023-01-29T04:18:45;5.33;;;4.75;;
14704;SDS011;7442;50.840;3.396;2023-01-29T04:21:32;5.72;;;4.95;;
14704;SDS011;7442;50.840;3.396;2023-01-29T04:24:21;6.75;;;5.03;;
14704;SDS011;7442;50.840;3.396;2023-01-29T04:27:20;5.75;;;4.97;;
14704;SDS011;7442;50.840;3.396;2023-01-29T04:39:01;5.58;;;5.08;;
14704;SDS011;7442;50.840;3.396;2023-01-29T04:42:05;5.75;;;4.87;;
14704;SDS011;7442;50.840;3.396;2023-01-29T04:45:15;5.72;;;4.87;;
14704;SDS011;7442;50.840;3.396;2023-01-29T04:48:15;4.80;;;4.35;;
14704;SDS011;7442;50.840;3.396;2023-01-29T04:51:10;5.75;;;4.53;;
14704;SDS011;7442;50.840;3.396;2023-01-29T04:53:59;5.20;;;4.70;;
14704;SDS011;7442;50.840;3.396;2023-01-29T05:00:06;5.37;;;4.87;;
14704;SDS011;7442;50.840;3.396;2023-01-29T05:02:55;6.53;;;5.27;;
14704;SDS011;7442;50.840;3.396;2023-01-29T05:05:44;4.95;;;4.45;;
14704;SDS011;7442;50.840;3.396;2023-01-29T05:08:32;5.62;;;4.95;;
14704;SDS011;7442;50.840;3.396;2023-01-29T05:11:21;5.08;;;4.58;;
14704;SDS011;7442;50.840;3.396;2023-01-29T05:14:09;4.95;;;4.45;;
14704;SDS011;7442;50.840;3.396;2023-01-29T05:16:58;5.30;;;4.80;;
14704;SDS011;7442;50.840;3.396;2023-01-29T05:19:47;4.92;;;4.50;;
14704;SDS011;7442;50.840;3.396;2023-01-29T05:22:34;5.12;;;4.60;;
14704;SDS011;7442;50.840;3.396;2023-01-29T05:25:26;5.78;;;5.20;;
14704;SDS011;7442;50.840;3.396;2023-01-29T05:28:13;5.28;;;4.78;;
14704;SDS011;7442;50.840;3.396;2023-01-29T05:31:02;5.30;;;4.78;;
14704;SDS011;7442;50.840;3.396;2023-01-29T05:33:48;5.62;;;4.83;;
14704;SDS011;7442;50.840;3.396;2023-01-29T05:36:35;5.22;;;4.72;;
14704;SDS011;7442;50.840;3.396;2023-01-29T05:39:21;5.45;;;4.92;;
14704;SDS011;7442;50.840;3.396;2023-01-29T05:42:08;4.87;;;4.40;;
14704;SDS011;7442;50.840;3.396;2023-01-29T05:44:54;5.40;;;4.87;;
14704;SDS011;7442;50.840;3.396;2023-01-29T05:47:40;5.75;;;4.97;;
14704;SDS011;7442;50.840;3.396;2023-01-29T05:50:26;5.25;;;4.75;;
14704;SDS011;7442;50.840;3.396;2023-01-29T05:53:13;7.42;;;5.22;;
14704;SDS011;7442;50.840;3.396;2023-01-29T05:56:00;5.50;;;4.95;;
14704;SDS011;7442;50.840;3.396;2023-01-29T05:58:47;6.65;;;4.90;;
14704;SDS011;7442;50.840;3.396;2023-01-29T06:01:34;5.75;;;5.15;;
14704;SDS011;7442;50.840;3.396;2023-01-29T06:04:20;4.75;;;4.35;;
14704;SDS011;7442;50.840;3.396;2023-01-29T06:07:07;5.90;;;5.28;;
14704;SDS011;7442;50.840;3.396;2023-01-29T06:09:53;5.00;;;4.55;;
14704;SDS011;7442;50.840;3.396;2023-01-29T06:12:40;5.20;;;4.70;;
14704;SDS011;7442;50.840;3.396;2023-01-29T06:15:27;6.25;;;5.15;;
14704;SDS011;7442;50.840;3.396;2023-01-29T06:18:14;5.80;;;5.20;;
14704;SDS011;7442;50.840;3.396;2023-01-29T06:21:01;5.47;;;4.97;;
14704;SDS011;7442;50.840;3.396;2023-01-29T06:23:51;5.10;;;4.60;;
14704;SDS011;7442;50.840;3.396;2023-01-29T06:26:37;5.08;;;4.58;;
14704;SDS011;7442;50.840;3.396;2023-01-29T06:29:24;5.53;;;4.90;;
14704;SDS011;7442;50.840;3.396;2023-01-29T06:32:12;5.28;;;4.78;;
14704;SDS011;7442;50.840;3.396;2023-01-29T06:34:58;5.20;;;4.75;;
14704;SDS011;7442;50.840;3.396;2023-01-29T06:37:45;5.33;;;4.83;;
14704;SDS011;7442;50.840;3.396;2023-01-29T06:40:31;6.25;;;4.83;;
14704;SDS011;7442;50.840;3.396;2023-01-29T06:43:17;6.22;;;5.28;;
14704;SDS011;7442;50.840;3.396;2023-01-29T06:46:06;6.25;;;5.35;;
14704;SDS011;7442;50.840;3.396;2023-01-29T06:48:52;5.22;;;4.72;;
14704;SDS011;7442;50.840;3.396;2023-01-29T06:51:38;5.97;;;5.37;;
14704;SDS011;7442;50.840;3.396;2023-01-29T06:54:25;5.17;;;4.67;;
14704;SDS011;7442;50.840;3.396;2023-01-29T06:57:11;5.58;;;5.08;;
14704;SDS011;7442;50.840;3.396;2023-01-29T06:59:58;5.83;;;5.30;;
14704;SDS011;7442;50.840;3.396;2023-01-29T07:02:47;5.37;;;4.87;;
14704;SDS011;7442;50.840;3.396;2023-01-29T07:05:35;5.50;;;5.00;;
14704;SDS011;7442;50.840;3.396;2023-01-29T07:08:22;5.85;;;5.33;;
14704;SDS011;7442;50.840;3.396;2023-01-29T07:11:08;5.40;;;4.90;;
14704;SDS011;7442;50.840;3.396;2023-01-29T07:13:56;5.60;;;4.83;;
14704;SDS011;7442;50.840;3.396;2023-01-29T07:16:42;4.80;;;4.40;;
14704;SDS011;7442;50.840;3.396;2023-01-29T07:19:29;5.67;;;5.08;;
14704;SDS011;7442;50.840;3.396;2023-01-29T07:22:15;5.33;;;4.83;;
14704;SDS011;7442;50.840;3.396;2023-01-29T07:25:02;7.60;;;5.05;;
14704;SDS011;7442;50.840;3.396;2023-01-29T07:27:48;5.58;;;4.90;;
14704;SDS011;7442;50.840;3.396;2023-01-29T07:30:35;5.25;;;4.75;;
14704;SDS011;7442;50.840;3.396;2023-01-29T07:33:21;5.55;;;4.92;;
14704;SDS011;7442;50.840;3.396;2023-01-29T07:36:08;5.42;;;4.92;;
14704;SDS011;7442;50.840;3.396;2023-01-29T07:38:55;5.58;;;4.97;;
14704;SDS011;7442;50.840;3.396;2023-01-29T07:41:43;5.47;;;4.97;;
14704;SDS011;7442;50.840;3.396;2023-01-29T07:44:29;5.20;;;4.70;;
14704;SDS011;7442;50.840;3.396;2023-01-29T07:47:16;5.65;;;5.15;;
14704;SDS011;7442;50.840;3.396;2023-01-29T07:50:02;5.70;;;4.70;;
14704;SDS011;7442;50.840;3.396;2023-01-29T07:52:49;5.65;;;5.10;;
14704;SDS011;7442;50.840;3.396;2023-01-29T07:55:35;5.35;;;4.80;;
14704;SDS011;7442;50.840;3.396;2023-01-29T07:58:21;5.00;;;4.53;;
14704;SDS011;7442;50.840;3.396;2023-01-29T08:01:07;4.97;;;4.47;;
14704;SDS011;7442;50.840;3.396;2023-01-29T08:03:54;6.70;;;5.67;;
14704;SDS011;7442;50.840;3.396;2023-01-29T08:06:40;5.92;;;5.37;;
14704;SDS011;7442;50.840;3.396;2023-01-29T08:09:27;5.20;;;4.70;;
14704;SDS011;7442;50.840;3.396;2023-01-29T08:12:13;5.28;;;4.72;;
14704;SDS011;7442;50.840;3.396;2023-01-29T08:14:59;5.67;;;5.12;;
14704;SDS011;7442;50.840;3.396;2023-01-29T08:17:46;5.45;;;4.95;;
14704;SDS011;7442;50.840;3.396;2023-01-29T08:20:32;6.62;;;5.33;;
14704;SDS011;7442;50.840;3.396;2023-01-29T08:23:19;6.03;;;5.42;;
14704;SDS011;7442;50.840;3.396;2023-01-29T08:26:06;5.45;;;4.80;;
14704;SDS011;7442;50.840;3.396;2023-01-29T08:28:53;5.83;;;5.20;;
14704;SDS011;7442;50.840;3.396;2023-01-29T08:31:39;5.60;;;5.00;;
14704;SDS011;7442;50.840;3.396;2023-01-29T08:34:27;6.97;;;5.37;;
14704;SDS011;7442;50.840;3.396;2023-01-29T08:37:14;5.58;;;5.03;;
14704;SDS011;7442;50.840;3.396;2023-01-29T08:40:00;5.50;;;5.00;;
14704;SDS011;7442;50.840;3.396;2023-01-29T08:42:47;6.28;;;5.08;;
14704;SDS011;7442;50.840;3.396;2023-01-29T08:45:35;6.20;;;5.20;;
14704;SDS011;7442;50.840;3.396;2023-01-29T08:48:23;5.78;;;5.17;;
14704;SDS011;7442;50.840;3.396;2023-01-29T08:51:09;5.70;;;5.10;;
14704;SDS011;7442;50.840;3.396;2023-01-29T08:53:56;5.42;;;4.92;;
14704;SDS011;7442;50.840;3.396;2023-01-29T08:56:43;5.42;;;4.92;;
14704;SDS011;7442;50.840;3.396;2023-01-29T08:59:30;5.05;;;4.55;;
14704;SDS011;7442;50.840;3.396;2023-01-29T09:02:17;5.50;;;5.00;;
14704;SDS011;7442;50.840;3.396;2023-01-29T09:05:03;6.10;;;5.50;;
14704;SDS011;7442;50.840;3.396;2023-01-29T09:07:50;5.55;;;5.05;;
14704;SDS011;7442;50.840;3.396;2023-01-29T09:10:37;5.35;;;4.85;;
14704;SDS011;7442;50.840;3.396;2023-01-29T09:13:24;5.58;;;5.03;;
14704;SDS011;7442;50.840;3.396;2023-01-29T09:16:11;5.72;;;5.15;;
14704;SDS011;7442;50.840;3.396;2023-01-29T09:18:57;4.83;;;4.42;;
14704;SDS011;7442;50.840;3.396;2023-01-29T09:21:44;5.60;;;5.00;;
14704;SDS011;7442;50.840;3.396;2023-01-29T09:24:30;5.55;;;4.67;;
14704;SDS011;7442;50.840;3.396;2023-01-29T09:27:19;5.40;;;4.90;;
14704;SDS011;7442;50.840;3.396;2023-01-29T09:30:06;5.50;;;4.85;;
14704;SDS011;7442;50.840;3.396;2023-01-29T09:32:52;6.25;;;5.67;;
14704;SDS011;7442;50.840;3.396;2023-01-29T09:35:46;5.00;;;4.50;;
14704;SDS011;7442;50.840;3.396;2023-01-29T09:38:32;5.30;;;4.80;;
14704;SDS011;7442;50.840;3.396;2023-01-29T09:44:45;5.28;;;4.78;;
14704;SDS011;7442;50.840;3.396;2023-01-29T09:47:44;5.60;;;4.97;;
14704;SDS011;7442;50.840;3.396;2023-01-29T09:50:40;5.12;;;4.53;;
14704;SDS011;7442;50.840;3.396;2023-01-29T09:53:29;5.70;;;5.10;;
14704;SDS011;7442;50.840;3.396;2023-01-29T09:56:20;5.78;;;5.03;;
14704;SDS011;7442;50.840;3.396;2023-01-29T09:59:09;5.33;;;4.83;;
14704;SDS011;7442;50.840;3.396;2023-01-29T10:02:01;5.03;;;4.50;;
14704;SDS011;7442;50.840;3.396;2023-01-29T10:05:08;6.47;;;5.00;;
14704;SDS011;7442;50.840;3.396;2023-01-29T10:14:18;7.17;;;5.60;;
14704;SDS011;7442;50.840;3.396;2023-01-29T10:17:18;5.60;;;5.10;;
14704;SDS011;7442;50.840;3.396;2023-01-29T10:20:18;5.85;;;5.25;;
14704;SDS011;7442;50.840;3.396;2023-01-29T10:26:09;8.00;;;5.58;;
14704;SDS011;7442;50.840;3.396;2023-01-29T10:28:56;8.45;;;5.92;;
14704;SDS011;7442;50.840;3.396;2023-01-29T10:31:44;7.95;;;5.75;;
14704;SDS011;7442;50.840;3.396;2023-01-29T10:37:36;8.80;;;6.20;;
14704;SDS011;7442;50.840;3.396;2023-01-29T10:40:21;12.07;;;5.83;;
14704;SDS011;7442;50.840;3.396;2023-01-29T10:46:22;11.60;;;5.40;;
14704;SDS011;7442;50.840;3.396;2023-01-29T10:55:58;9.83;;;6.10;;
14704;SDS011;7442;50.840;3.396;2023-01-29T11:01:30;6.97;;;5.12;;
14704;SDS011;7442;50.840;3.396;2023-01-29T11:04:16;7.65;;;5.05;;
14704;SDS011;7442;50.840;3.396;2023-01-29T11:07:03;20.92;;;6.00;;
14704;SDS011;7442;50.840;3.396;2023-01-29T11:09:55;11.48;;;5.70;;
14704;SDS011;7442;50.840;3.396;2023-01-29T11:12:58;15.53;;;5.55;;
14704;SDS011;7442;50.840;3.396;2023-01-29T11:15:46;7.92;;;5.72;;
14704;SDS011;7442;50.840;3.396;2023-01-29T11:24:45;7.00;;;5.17;;
14704;SDS011;7442;50.840;3.396;2023-01-29T11:27:34;10.45;;;5.08;;
14704;SDS011;7442;50.840;3.396;2023-01-29T11:30:32;15.80;;;6.10;;
14704;SDS011;7442;50.840;3.396;2023-01-29T11:33:21;8.65;;;4.92;;
14704;SDS011;7442;50.840;3.396;2023-01-29T11:36:27;9.68;;;5.35;;
14704;SDS011;7442;50.840;3.396;2023-01-29T11:39:17;12.25;;;5.70;;
14704;SDS011;7442;50.840;3.396;2023-01-29T11:42:08;8.65;;;5.30;;
14704;SDS011;7442;50.840;3.396;2023-01-29T11:44:57;9.55;;;5.35;;
14704;SDS011;7442;50.840;3.396;2023-01-29T11:47:43;9.05;;;5.33;;
14704;SDS011;7442;50.840;3.396;2023-01-29T11:50:35;7.60;;;5.10;;
14704;SDS011;7442;50.840;3.396;2023-01-29T11:53:35;5.92;;;4.70;;
14704;SDS011;7442;50.840;3.396;2023-01-29T11:56:33;7.53;;;5.05;;
14704;SDS011;7442;50.840;3.396;2023-01-29T11:59:36;7.87;;;4.87;;
14704;SDS011;7442;50.840;3.396;2023-01-29T12:02:28;8.25;;;5.08;;
14704;SDS011;7442;50.840;3.396;2023-01-29T12:05:16;7.35;;;5.28;;
14704;SDS011;7442;50.840;3.396;2023-01-29T12:08:13;6.90;;;5.33;;
14704;SDS011;7442;50.840;3.396;2023-01-29T12:11:44;8.88;;;4.67;;
14704;SDS011;7442;50.840;3.396;2023-01-29T12:14:00;7.15;;;5.20;;
14704;SDS011;7442;50.840;3.396;2023-01-29T12:19:59;9.00;;;4.80;;
14704;SDS011;7442;50.840;3.396;2023-01-29T12:23:16;7.30;;;5.00;;
14704;SDS011;7442;50.840;3.396;2023-01-29T12:25:52;6.10;;;4.42;;
14704;SDS011;7442;50.840;3.396;2023-01-29T12:36:30;6.65;;;5.05;;
14704;SDS011;7442;50.840;3.396;2023-01-29T12:38:27;6.30;;;4.30;;
14704;SDS011;7442;50.840;3.396;2023-01-29T12:41:24;6.25;;;4.95;;
14704;SDS011;7442;50.840;3.396;2023-01-29T12:44:40;6.75;;;4.92;;
14704;SDS011;7442;50.840;3.396;2023-01-29T12:47:35;6.05;;;4.03;;
14704;SDS011;7442;50.840;3.396;2023-01-29T12:50:34;5.92;;;4.47;;
14704;SDS011;7442;50.840;3.396;2023-01-29T12:53:25;6.45;;;4.15;;
14704;SDS011;7442;50.840;3.396;2023-01-29T12:56:15;5.30;;;4.40;;
14704;SDS011;7442;50.840;3.396;2023-01-29T12:59:19;5.40;;;4.53;;
14704;SDS011;7442;50.840;3.396;2023-01-29T13:02:31;5.55;;;4.65;;
14704;SDS011;7442;50.840;3.396;2023-01-29T13:08:30;5.83;;;4.42;;
14704;SDS011;7442;50.840;3.396;2023-01-29T13:11:24;5.00;;;4.20;;
14704;SDS011;7442;50.840;3.396;2023-01-29T13:14:13;4.95;;;4.22;;
14704;SDS011;7442;50.840;3.396;2023-01-29T13:17:22;5.03;;;4.33;;
14704;SDS011;7442;50.840;3.396;2023-01-29T13:24:19;7.37;;;4.80;;
14704;SDS011;7442;50.840;3.396;2023-01-29T13:26:19;4.70;;;4.15;;
14704;SDS011;7442;50.840;3.396;2023-01-29T13:29:12;5.92;;;4.10;;
14704;SDS011;7442;50.840;3.396;2023-01-29T13:32:02;5.40;;;4.08;;
14704;SDS011;7442;50.840;3.396;2023-01-29T13:34:45;4.87;;;3.98;;
14704;SDS011;7442;50.840;3.396;2023-01-29T13:37:35;4.97;;;3.92;;
14704;SDS011;7442;50.840;3.396;2023-01-29T13:40:24;5.30;;;3.98;;
14704;SDS011;7442;50.840;3.396;2023-01-29T13:43:16;4.78;;;4.03;;
14704;SDS011;7442;50.840;3.396;2023-01-29T13:46:11;4.40;;;3.85;;
14704;SDS011;7442;50.840;3.396;2023-01-29T13:49:01;3.83;;;3.52;;
14704;SDS011;7442;50.840;3.396;2023-01-29T13:51:49;4.62;;;3.87;;
14704;SDS011;7442;50.840;3.396;2023-01-29T13:54:36;6.03;;;3.72;;
14704;SDS011;7442;50.840;3.396;2023-01-29T14:00:46;4.42;;;3.90;;
14704;SDS011;7442;50.840;3.396;2023-01-29T14:06:13;5.22;;;3.95;;
14704;SDS011;7442;50.840;3.396;2023-01-29T14:09:01;4.10;;;3.65;;
14704;SDS011;7442;50.840;3.396;2023-01-29T14:11:48;5.17;;;3.92;;
14704;SDS011;7442;50.840;3.396;2023-01-29T14:17:37;4.08;;;3.37;;
14704;SDS011;7442;50.840;3.396;2023-01-29T14:20:24;5.70;;;3.40;;
14704;SDS011;7442;50.840;3.396;2023-01-29T14:29:23;5.37;;;3.70;;
14704;SDS011;7442;50.840;3.396;2023-01-29T14:32:14;3.75;;;3.30;;
14704;SDS011;7442;50.840;3.396;2023-01-29T14:35:31;4.17;;;3.50;;
14704;SDS011;7442;50.840;3.396;2023-01-29T14:38:04;5.40;;;3.45;;
14704;SDS011;7442;50.840;3.396;2023-01-29T14:40:59;3.92;;;3.45;;
14704;SDS011;7442;50.840;3.396;2023-01-29T14:43:50;4.20;;;3.10;;
14704;SDS011;7442;50.840;3.396;2023-01-29T14:46:42;3.50;;;3.08;;
14704;SDS011;7442;50.840;3.396;2023-01-29T14:49:48;3.85;;;3.40;;
14704;SDS011;7442;50.840;3.396;2023-01-29T14:52:46;3.08;;;2.77;;
14704;SDS011;7442;50.840;3.396;2023-01-29T14:55:47;4.35;;;3.37;;
14704;SDS011;7442;50.840;3.396;2023-01-29T15:01:38;3.55;;;3.25;;
14704;SDS011;7442;50.840;3.396;2023-01-29T15:04:29;3.70;;;3.12;;
14704;SDS011;7442;50.840;3.396;2023-01-29T15:07:31;3.85;;;2.95;;
14704;SDS011;7442;50.840;3.396;2023-01-29T15:10:21;3.95;;;2.98;;
14704;SDS011;7442;50.840;3.396;2023-01-29T15:13:13;3.55;;;3.25;;
14704;SDS011;7442;50.840;3.396;2023-01-29T15:16:15;3.25;;;2.90;;
14704;SDS011;7442;50.840;3.396;2023-01-29T15:19:23;3.27;;;2.97;;
14704;SDS011;7442;50.840;3.396;2023-01-29T15:22:12;4.45;;;2.98;;
14704;SDS011;7442;50.840;3.396;2023-01-29T15:25:05;3.67;;;3.30;;
14704;SDS011;7442;50.840;3.396;2023-01-29T15:27:49;3.52;;;3.20;;
14704;SDS011;7442;50.840;3.396;2023-01-29T15:30:37;3.25;;;2.95;;
14704;SDS011;7442;50.840;3.396;2023-01-29T15:33:26;3.25;;;2.72;;
14704;SDS011;7442;50.840;3.396;2023-01-29T15:36:25;3.40;;;3.10;;
14704;SDS011;7442;50.840;3.396;2023-01-29T15:39:21;3.62;;;3.10;;
14704;SDS011;7442;50.840;3.396;2023-01-29T15:42:13;4.92;;;3.77;;
14704;SDS011;7442;50.840;3.396;2023-01-29T15:45:01;4.35;;;2.77;;
14704;SDS011;7442;50.840;3.396;2023-01-29T15:47:48;3.77;;;3.17;;
14704;SDS011;7442;50.840;3.396;2023-01-29T15:50:43;3.85;;;2.95;;
14704;SDS011;7442;50.840;3.396;2023-01-29T15:53:34;3.60;;;3.12;;
14704;SDS011;7442;50.840;3.396;2023-01-29T15:56:28;4.17;;;3.40;;
14704;SDS011;7442;50.840;3.396;2023-01-29T15:59:19;3.25;;;2.95;;
14704;SDS011;7442;50.840;3.396;2023-01-29T16:02:27;3.67;;;3.30;;
14704;SDS011;7442;50.840;3.396;2023-01-29T16:05:27;3.08;;;2.77;;
14704;SDS011;7442;50.840;3.396;2023-01-29T16:08:16;5.12;;;3.52;;
14704;SDS011;7442;50.840;3.396;2023-01-29T16:11:05;4.83;;;3.60;;
14704;SDS011;7442;50.840;3.396;2023-01-29T16:13:52;3.70;;;2.85;;
14704;SDS011;7442;50.840;3.396;2023-01-29T16:16:40;3.58;;;3.10;;
14704;SDS011;7442;50.840;3.396;2023-01-29T16:19:28;3.30;;;3.00;;
14704;SDS011;7442;50.840;3.396;2023-01-29T16:22:14;3.22;;;2.90;;
14704;SDS011;7442;50.840;3.396;2023-01-29T16:25:02;3.40;;;3.10;;
14704;SDS011;7442;50.840;3.396;2023-01-29T16:27:49;3.20;;;2.90;;
14704;SDS011;7442;50.840;3.396;2023-01-29T16:30:36;3.12;;;2.58;;
14704;SDS011;7442;50.840;3.396;2023-01-29T16:33:27;3.58;;;3.27;;
14704;SDS011;7442;50.840;3.396;2023-01-29T16:36:17;2.70;;;2.47;;
14704;SDS011;7442;50.840;3.396;2023-01-29T16:39:16;3.22;;;2.92;;
14704;SDS011;7442;50.840;3.396;2023-01-29T16:45:25;3.33;;;3.02;;
14704;SDS011;7442;50.840;3.396;2023-01-29T16:51:20;4.17;;;2.98;;
14704;SDS011;7442;50.840;3.396;2023-01-29T16:54:05;3.30;;;3.00;;
14704;SDS011;7442;50.840;3.396;2023-01-29T16:57:10;2.98;;;2.75;;
14704;SDS011;7442;50.840;3.396;2023-01-29T17:00:02;3.33;;;3.02;;
14704;SDS011;7442;50.840;3.396;2023-01-29T17:02:51;3.17;;;2.87;;
14704;SDS011;7442;50.840;3.396;2023-01-29T17:05:42;3.65;;;3.35;;
14704;SDS011;7442;50.840;3.396;2023-01-29T17:08:33;3.25;;;2.95;;
14704;SDS011;7442;50.840;3.396;2023-01-29T17:11:39;3.30;;;3.00;;
14704;SDS011;7442;50.840;3.396;2023-01-29T17:14:17;2.85;;;2.65;;
14704;SDS011;7442;50.840;3.396;2023-01-29T17:17:05;3.77;;;2.98;;
14704;SDS011;7442;50.840;3.396;2023-01-29T17:19:53;2.77;;;2.58;;
14704;SDS011;7442;50.840;3.396;2023-01-29T17:22:40;3.40;;;3.10;;
14704;SDS011;7442;50.840;3.396;2023-01-29T17:25:26;3.10;;;2.60;;
14704;SDS011;7442;50.840;3.396;2023-01-29T17:28:14;3.00;;;2.58;;
14704;SDS011;7442;50.840;3.396;2023-01-29T17:31:01;2.98;;;2.77;;
14704;SDS011;7442;50.840;3.396;2023-01-29T17:33:47;3.55;;;2.87;;
14704;SDS011;7442;50.840;3.396;2023-01-29T17:36:34;3.70;;;3.00;;
14704;SDS011;7442;50.840;3.396;2023-01-29T17:39:21;3.30;;;2.83;;
14704;SDS011;7442;50.840;3.396;2023-01-29T17:42:10;3.30;;;3.00;;
14704;SDS011;7442;50.840;3.396;2023-01-29T17:44:58;3.05;;;2.75;;
14704;SDS011;7442;50.840;3.396;2023-01-29T17:47:45;3.52;;;2.90;;
14704;SDS011;7442;50.840;3.396;2023-01-29T17:50:31;3.65;;;2.75;;
14704;SDS011;7442;50.840;3.396;2023-01-29T17:53:20;3.47;;;2.95;;
14704;SDS011;7442;50.840;3.396;2023-01-29T17:56:17;3.62;;;3.17;;
14704;SDS011;7442;50.840;3.396;2023-01-29T17:59:13;3.20;;;2.90;;
14704;SDS011;7442;50.840;3.396;2023-01-29T18:02:06;2.72;;;2.52;;
14704;SDS011;7442;50.840;3.396;2023-01-29T18:04:53;4.10;;;2.87;;
14704;SDS011;7442;50.840;3.396;2023-01-29T18:07:40;3.10;;;2.80;;
14704;SDS011;7442;50.840;3.396;2023-01-29T18:10:28;3.47;;;2.95;;
14704;SDS011;7442;50.840;3.396;2023-01-29T18:13:15;2.83;;;2.62;;
14704;SDS011;7442;50.840;3.396;2023-01-29T18:16:01;3.27;;;2.98;;
14704;SDS011;7442;50.840;3.396;2023-01-29T18:18:49;2.98;;;2.67;;
14704;SDS011;7442;50.840;3.396;2023-01-29T18:21:36;3.22;;;2.80;;
14704;SDS011;7442;50.840;3.396;2023-01-29T18:24:23;2.87;;;2.67;;
14704;SDS011;7442;50.840;3.396;2023-01-29T18:27:10;3.10;;;2.80;;
14704;SDS011;7442;50.840;3.396;2023-01-29T18:29:58;3.15;;;2.80;;
14704;SDS011;7442;50.840;3.396;2023-01-29T18:32:44;2.95;;;2.62;;
14704;SDS011;7442;50.840;3.396;2023-01-29T18:35:32;3.12;;;2.60;;
14704;SDS011;7442;50.840;3.396;2023-01-29T18:38:18;2.95;;;2.72;;
14704;SDS011;7442;50.840;3.396;2023-01-29T18:41:05;3.52;;;2.85;;
14704;SDS011;7442;50.840;3.396;2023-01-29T18:43:56;3.20;;;2.87;;
14704;SDS011;7442;50.840;3.396;2023-01-29T18:46:42;2.80;;;2.60;;
14704;SDS011;7442;50.840;3.396;2023-01-29T18:49:29;3.20;;;2.90;;
14704;SDS011;7442;50.840;3.396;2023-01-29T18:52:16;2.90;;;2.70;;
14704;SDS011;7442;50.840;3.396;2023-01-29T18:55:03;4.03;;;2.70;;
14704;SDS011;7442;50.840;3.396;2023-01-29T18:57:52;2.90;;;2.62;;
14704;SDS011;7442;50.840;3.396;2023-01-29T19:00:39;3.30;;;2.80;;
14704;SDS011;7442;50.840;3.396;2023-01-29T19:03:25;2.42;;;2.22;;
14704;SDS011;7442;50.840;3.396;2023-01-29T19:06:13;3.12;;;2.72;;
14704;SDS011;7442;50.840;3.396;2023-01-29T19:08:59;3.20;;;2.90;;